• Join FlightAware (Why Join?)
  • Login
  • US Flag 
07:19AM EDT


 

Airport Tracker/Info


-or-


 

Live Flight TrackerFlight Track Log ✈ SKW5649 ✈ 03-May-2013 ✈ KDEN - KBUR

Flight Track Log - Related Links

Times and Time Zones

All times are in EDT time to prevent confusion due to time zone crossing. See the SKW5649 flight status page for this flight to view local times or setup timezone preferences in your user account.

Time Position Orientation Groundspeed Altitude Reporting Facility
EDT Latitude Longitude Course Direction KTS MPH feet Rate Location/Type
09:39PM 39.9000 -104.7667 237° Southwest 237 273 8,300  Level Denver TRACON
09:40PM 39.8500 -104.8500 232° Southwest 283 326 10,000 1,920 Climbing Denver TRACON
09:41PM 39.7194 -105.0753 247° West  Level FlightAware Approximate
09:41PM 39.8356 -104.8833 241° Southwest 287 330 11,200  Level Denver Center
09:42PM 39.6743 -105.2106 247° West  Level FlightAware Approximate
09:42PM 39.7875 -104.9808 237° Southwest 295 339 14,500  Level Denver Center
09:43PM 39.6350 -105.3489 248° West  Level FlightAware Approximate
09:43PM 39.7492 -105.0756 242° Southwest 303 349 16,200  Level Denver Center
09:44PM 39.5929 -105.4857 248° West  Level FlightAware Approximate
09:44PM 39.7069 -105.1922 245° Southwest 329 379 18,000  Level Denver Center
09:45PM 39.5498 -105.6171 237° Southwest  Level FlightAware Approximate
09:45PM 39.6667 -105.3044 245° Southwest 342 394 20,100  Level Denver Center
09:46PM 39.6253 -105.4181 245° Southwest 351 404 21,800 1,440 Climbing Denver Center
09:47PM 39.5786 -105.5425 244° Southwest 358 412 23,100 1,140 Climbing Denver Center
09:48PM 39.5397 -105.6564 246° West 362 417 24,200 1,200 Climbing Denver Center
09:49PM 39.5050 -105.7828 250° West 371 427 25,700 1,500 Climbing Denver Center
09:50PM 39.4672 -105.9292 252° West 367 422 27,400 1,440 Climbing Denver Center
09:51PM 39.4306 -106.0583 250° West 378 435 28,700 1,260 Climbing Denver Center
09:52PM 39.3922 -106.1911 250° West 383 441 30,100 1,200 Climbing Denver Center
09:53PM 39.3583 -106.3142 250° West 380 437 31,200 960 Climbing Denver Center
09:54PM 39.3167 -106.4575 249° West 382 440 32,100 900 Climbing Denver Center
09:55PM 39.2808 -106.5822 250° West 387 445 33,100 1,020 Climbing Denver Center
09:56PM 39.2383 -106.7269 249° West 385 443 34,300 1,020 Climbing Denver Center
09:57PM 39.1847 -106.8400 239° Southwest 384 442 35,300 840 Climbing Denver Center
09:58PM 39.1314 -106.9525 239° Southwest 384 442 36,100 780 Climbing Denver Center
09:59PM 39.0692 -107.0806 238° Southwest 378 435 37,000 660 Climbing Denver Center
10:00PM 39.0153 -107.1917 238° Southwest 380 437 37,500 420 Climbing Denver Center
10:02PM 38.9519 -107.3222 238° Southwest 383 441 38,000 180 Climbing Denver Center
10:03PM 38.8808 -107.4689 238° Southwest 380 437 38,000  Level Denver Center
10:04PM 38.8281 -107.5758 238° Southwest 374 430 38,000  Level Denver Center
10:05PM 38.7764 -107.6831 238° Southwest 371 427 38,000  Level Denver Center
10:06PM 38.7144 -107.8061 237° Southwest 369 425 38,000  Level Denver Center
10:07PM 38.6597 -107.9189 238° Southwest 381 438 38,000  Level Denver Center
10:08PM 38.5947 -108.0503 238° Southwest 388 447 38,000  Level Denver Center
10:09PM 38.5383 -108.1642 238° Southwest 393 452 38,000  Level Denver Center
10:10PM 38.4714 -108.2964 237° Southwest 396 456 38,000  Level Denver Center
10:11PM 38.4156 -108.4097 238° Southwest 395 455 38,000  Level Denver Center
10:12PM 38.3503 -108.5403 238° Southwest 392 451 38,000  Level Denver Center
10:13PM 38.2942 -108.6508 237° Southwest 389 448 38,000  Level Denver Center
10:14PM 38.2267 -108.7850 237° Southwest 397 457 38,000  Level Denver Center
10:15PM 38.1694 -108.8972 237° Southwest 397 457 38,000  Level Denver Center
10:16PM 38.1114 -109.0086 237° Southwest 395 455 38,000  Level Denver Center
10:17PM 38.0467 -109.1364 237° Southwest 396 456 38,000  Level Denver Center
10:18PM 37.9811 -109.2619 237° Southwest 386 444 38,000  Level Denver Center
10:19PM 37.9236 -109.3747 237° Southwest 394 453 38,000  Level Denver Center
10:20PM 37.8658 -109.4844 236° Southwest 392 451 38,000  Level Denver Center
10:21PM 37.8081 -109.5956 237° Southwest 394 453 38,000  Level Denver Center
10:22PM 37.7400 -109.7256 237° Southwest 397 457 38,000  Level Denver Center
10:23PM 37.6711 -109.8561 236° Southwest 400 460 38,000  Level Denver Center
10:24PM 37.6117 -109.9697 237° Southwest 404 465 38,000  Level Denver Center
10:25PM 37.5422 -110.1022 237° Southwest 407 468 38,000  Level Denver Center
10:26PM 37.4775 -110.2231 236° Southwest 409 471 38,000  Level Denver Center
10:27PM 37.4222 -110.3278 236° Southwest 406 467 38,000  Level Denver Center
10:28PM 37.3478 -110.4650 236° Southwest 397 457 38,000  Level Denver Center
10:29PM 37.2864 -110.5806 236° Southwest 397 457 38,000  Level Denver Center
10:30PM 37.2244 -110.6947 236° Southwest 396 456 38,000  Level Denver Center
10:31PM 37.1639 -110.8097 237° Southwest 394 453 38,000  Level Denver Center
10:32PM 37.1006 -110.9239 235° Southwest 397 457 38,000  Level Denver Center
10:34PM 37.0392 -111.0394 236° Southwest 398 458 38,000  Level Denver Center
10:35PM 36.9753 -111.1550 235° Southwest 402 463 38,000  Level Denver Center
10:36PM 36.9253 -111.2469 236° Southwest 400 460 38,000  Level Denver Center
10:37PM 36.8411 -111.4053 236° Southwest 393 452 38,000  Level Denver Center
10:38PM 36.7753 -111.5222 235° Southwest 401 461 38,000  Level Denver Center
10:39PM 36.7100 -111.6378 235° Southwest 406 467 38,000  Level Denver Center
10:40PM 36.6453 -111.7544 235° Southwest 407 468 38,000  Level Denver Center
10:41PM 36.5814 -111.8694 235° Southwest 405 466 38,000  Level Denver Center
10:42PM 36.5406 -111.9681 243° Southwest 397 457 38,000  Level Los Angeles Center
10:43PM 36.4869 -112.1181 246° West 394 453 38,000  Level Los Angeles Center
10:44PM 36.4414 -112.2417 245° Southwest 392 451 38,000  Level Los Angeles Center
10:45PM 36.3964 -112.3669 246° West 395 455 38,000  Level Los Angeles Center
10:46PM 36.3489 -112.4925 245° Southwest 399 459 38,000  Level Los Angeles Center
10:47PM 36.3033 -112.6194 246° West 401 461 38,000  Level Los Angeles Center
10:48PM 36.2569 -112.7444 245° Southwest 399 459 38,000  Level Los Angeles Center
10:49PM 36.2100 -112.8694 245° Southwest 400 460 38,000  Level Los Angeles Center
10:50PM 36.1631 -112.9956 245° Southwest 402 463 38,000  Level Los Angeles Center
10:51PM 36.1069 -113.1472 245° Southwest 404 465 38,000  Level Los Angeles Center
10:52PM 36.0625 -113.2650 245° Southwest 402 463 38,000  Level Los Angeles Center
10:53PM 36.0153 -113.3903 245° Southwest 401 461 38,000  Level Los Angeles Center
10:54PM 35.9678 -113.5147 245° Southwest 401 461 38,000  Level Los Angeles Center
10:55PM 35.9206 -113.6381 245° Southwest 399 459 38,000  Level Los Angeles Center
10:56PM 35.8742 -113.7639 246° West 401 461 38,000  Level Los Angeles Center
10:57PM 35.8172 -113.9117 245° Southwest 398 458 38,000 -180 Level Los Angeles Center
10:58PM 35.7692 -114.0361 245° Southwest 400 460 37,700 -480 Descending Los Angeles Center
10:59PM 35.7194 -114.1639 244° Southwest 411 473 37,100 -600 Descending Los Angeles Center
11:00PM 35.6694 -114.2928 245° Southwest 416 479 36,500 -600 Descending Los Angeles Center
11:01PM 35.6194 -114.4203 244° Southwest 414 476 35,900 -600 Descending Los Angeles Center
11:02PM 35.5706 -114.5453 244° Southwest 407 468 35,300 -600 Descending Los Angeles Center
11:03PM 35.5208 -114.6714 244° Southwest 409 471 34,700 -600 Descending Los Angeles Center
11:04PM 35.4703 -114.7992 244° Southwest 414 476 34,100 -360 Descending Los Angeles Center
11:05PM 35.4106 -114.9531 245° Southwest 415 478 34,000 -60 Descending Los Angeles Center
11:06PM 35.3594 -115.0786 244° Southwest 411 473 34,000 -60 Level Los Angeles Center
11:07PM 35.3092 -115.2067 244° Southwest 414 476 33,900 -540 Descending Los Angeles Center
11:08PM 35.2569 -115.3350 244° Southwest 418 481 32,900 -1,020 Descending Los Angeles Center
11:09PM 35.2050 -115.4647 244° Southwest 422 486 31,900 -1,080 Descending Los Angeles Center
11:10PM 35.1511 -115.6011 244° Southwest 423 487 30,800 -840 Descending Los Angeles Center
11:11PM 35.0983 -115.7308 244° Southwest 427 491 30,300 -540 Descending Los Angeles Center
11:12PM 35.0461 -115.8606 244° Southwest 427 491 29,800 -600 Descending Los Angeles Center
11:13PM 34.9922 -115.9883 243° Southwest 425 489 29,100 -1,560 Descending Los Angeles Center
11:14PM 34.9394 -116.1192 244° Southwest 429 494 26,700 -2,400 Descending Los Angeles Center
11:16PM 34.8867 -116.2453 243° Southwest 422 486 24,300 -1,800 Descending Los Angeles Center
11:17PM 34.8264 -116.3925 244° Southwest 407 468 23,100 -1,080 Descending Los Angeles Center
11:18PM 34.7922 -116.5242 252° West 414 476 22,100 -1,020 Descending Los Angeles Center
11:19PM 34.7775 -116.6606 263° West 411 473 21,100 -1,020 Descending Los Angeles Center
11:20PM 34.7647 -116.7950 263° West 403 464 20,100 -720 Descending Los Angeles Center
11:21PM 34.7514 -116.9258 263° West 393 452 19,700 -720 Descending Los Angeles Center
11:22PM 34.7378 -117.0558 263° West 389 448 18,700 -1,020 Descending Los Angeles Center
11:23PM 34.7236 -117.1875 263° West 391 450 17,700 -1,020 Descending Los Angeles Center
11:24PM 34.7117 -117.3089 263° West 367 422 16,700 -1,140 Descending Los Angeles Center
11:25PM 34.6944 -117.4589 262° West 371 427 15,400 -1,080 Descending Los Angeles Center
11:26PM 34.6803 -117.5594 260° West 375 432 14,600 -1,020 Descending Los Angeles Center
11:27PM 34.6592 -117.7083 260° West 374 430 13,400 -1,080 Descending Los Angeles Center
11:28PM 34.6431 -117.8231 260° West 348 400 12,400 -1,020 Descending Los Angeles Center
11:29PM 34.6289 -117.9231 260° West 307 353 11,400 -1,020 Descending Los Angeles Center
11:30PM 34.6161 -118.0203 261° West 293 337 10,400 -1,020 Descending Los Angeles Center
11:31PM 34.6011 -118.1167 259° West 290 334 9,400 -1,020 Descending Los Angeles Center
11:32PM 34.5850 -118.2278 260° West 285 328 8,300 -720 Descending Los Angeles Center
11:33PM 34.5708 -118.3233 260° West 287 330 8,000 -180 Descending Los Angeles Center
11:34PM 34.5500 -118.4136 254° West 284 327 8,000 -540 Level Los Angeles Center
11:35PM 34.4939 -118.4772 223° Southwest 275 316 6,900 -1,080 Descending Los Angeles Center
11:36PM 34.4372 -118.5342 220° Southwest 274 315 5,900 -1,020 Descending Los Angeles Center
11:37PM 34.3667 -118.5500 190° South 240 276 5,100 -540 Descending Southern California TRACON
11:38PM 34.3167 -118.5667 195° South 201 231 5,000 -60 Descending Southern California TRACON
11:39PM 34.2667 -118.5833 195° South 195 224 5,000 -780 Level Southern California TRACON
11:40PM 34.2167 -118.5667 165° South 200 230 3,500 -1,020 Descending Southern California TRACON
11:41PM 34.2000 -118.5000 107° East 188 216 3,000 -540 Descending Southern California TRACON